sensor_id;sensor_type;location;lat;lon;timestamp;P1;durP1;ratioP1;P2;durP2;ratioP2
51216;SDS011;37283;49.760;8.648;2024-02-15T00:01:04;5.65;;;3.22;;
51216;SDS011;37283;49.760;8.648;2024-02-15T00:03:32;5.13;;;2.90;;
51216;SDS011;37283;49.760;8.648;2024-02-15T00:06:05;5.75;;;2.65;;
51216;SDS011;37283;49.760;8.648;2024-02-15T00:08:35;4.35;;;2.58;;
51216;SDS011;37283;49.760;8.648;2024-02-15T00:11:14;7.10;;;2.83;;
51216;SDS011;37283;49.760;8.648;2024-02-15T00:16:41;6.15;;;2.53;;
51216;SDS011;37283;49.760;8.648;2024-02-15T00:19:25;6.18;;;2.60;;
51216;SDS011;37283;49.760;8.648;2024-02-15T00:21:57;6.50;;;2.72;;
51216;SDS011;37283;49.760;8.648;2024-02-15T00:24:36;4.45;;;2.22;;
51216;SDS011;37283;49.760;8.648;2024-02-15T00:27:05;7.25;;;2.63;;
51216;SDS011;37283;49.760;8.648;2024-02-15T00:29:35;7.10;;;2.60;;
51216;SDS011;37283;49.760;8.648;2024-02-15T00:32:18;6.93;;;2.60;;
51216;SDS011;37283;49.760;8.648;2024-02-15T00:34:52;6.30;;;2.67;;
51216;SDS011;37283;49.760;8.648;2024-02-15T00:37:34;6.97;;;2.40;;
51216;SDS011;37283;49.760;8.648;2024-02-15T00:40:12;6.97;;;2.50;;
51216;SDS011;37283;49.760;8.648;2024-02-15T00:42:50;7.45;;;2.55;;
51216;SDS011;37283;49.760;8.648;2024-02-15T00:45:29;5.57;;;2.60;;
51216;SDS011;37283;49.760;8.648;2024-02-15T00:48:03;8.13;;;2.92;;
51216;SDS011;37283;49.760;8.648;2024-02-15T00:50:34;7.18;;;2.60;;
51216;SDS011;37283;49.760;8.648;2024-02-15T00:53:05;7.78;;;2.80;;
51216;SDS011;37283;49.760;8.648;2024-02-15T00:55:34;6.18;;;2.40;;
51216;SDS011;37283;49.760;8.648;2024-02-15T00:58:05;7.22;;;2.70;;
51216;SDS011;37283;49.760;8.648;2024-02-15T01:00:46;6.90;;;2.72;;
51216;SDS011;37283;49.760;8.648;2024-02-15T01:03:33;7.20;;;2.75;;
51216;SDS011;37283;49.760;8.648;2024-02-15T01:06:15;9.77;;;3.17;;
51216;SDS011;37283;49.760;8.648;2024-02-15T01:08:47;8.80;;;2.97;;
51216;SDS011;37283;49.760;8.648;2024-02-15T01:11:30;8.77;;;3.40;;
51216;SDS011;37283;49.760;8.648;2024-02-15T01:14:16;5.97;;;2.92;;
51216;SDS011;37283;49.760;8.648;2024-02-15T01:16:48;9.68;;;3.10;;
51216;SDS011;37283;49.760;8.648;2024-02-15T01:19:18;10.65;;;3.13;;
51216;SDS011;37283;49.760;8.648;2024-02-15T01:24:27;5.03;;;2.63;;
51216;SDS011;37283;49.760;8.648;2024-02-15T01:27:01;5.38;;;2.90;;
51216;SDS011;37283;49.760;8.648;2024-02-15T01:29:49;6.25;;;2.83;;
51216;SDS011;37283;49.760;8.648;2024-02-15T01:32:22;6.20;;;2.80;;
51216;SDS011;37283;49.760;8.648;2024-02-15T01:34:56;6.13;;;2.63;;
51216;SDS011;37283;49.760;8.648;2024-02-15T01:37:26;6.88;;;2.60;;
51216;SDS011;37283;49.760;8.648;2024-02-15T01:39:57;7.47;;;3.30;;
51216;SDS011;37283;49.760;8.648;2024-02-15T01:42:35;6.70;;;2.83;;
51216;SDS011;37283;49.760;8.648;2024-02-15T01:45:07;9.65;;;3.17;;
51216;SDS011;37283;49.760;8.648;2024-02-15T01:48:00;4.47;;;2.50;;
51216;SDS011;37283;49.760;8.648;2024-02-15T01:50:37;5.68;;;2.58;;
51216;SDS011;37283;49.760;8.648;2024-02-15T01:53:12;6.57;;;2.70;;
51216;SDS011;37283;49.760;8.648;2024-02-15T01:55:49;5.80;;;2.60;;
51216;SDS011;37283;49.760;8.648;2024-02-15T01:58:28;10.45;;;3.10;;
51216;SDS011;37283;49.760;8.648;2024-02-15T02:03:46;6.00;;;2.70;;
51216;SDS011;37283;49.760;8.648;2024-02-15T02:06:20;8.82;;;2.60;;
51216;SDS011;37283;49.760;8.648;2024-02-15T02:08:53;7.53;;;2.50;;
51216;SDS011;37283;49.760;8.648;2024-02-15T02:11:31;5.43;;;2.75;;
51216;SDS011;37283;49.760;8.648;2024-02-15T02:14:01;8.00;;;2.80;;
51216;SDS011;37283;49.760;8.648;2024-02-15T02:16:32;5.90;;;2.75;;
51216;SDS011;37283;49.760;8.648;2024-02-15T02:19:09;3.47;;;2.28;;
51216;SDS011;37283;49.760;8.648;2024-02-15T02:21:40;7.60;;;2.88;;
51216;SDS011;37283;49.760;8.648;2024-02-15T02:24:20;5.40;;;2.22;;
51216;SDS011;37283;49.760;8.648;2024-02-15T02:26:58;6.35;;;3.10;;
51216;SDS011;37283;49.760;8.648;2024-02-15T02:29:30;7.18;;;2.80;;
51216;SDS011;37283;49.760;8.648;2024-02-15T02:32:02;9.18;;;2.60;;
51216;SDS011;37283;49.760;8.648;2024-02-15T02:34:45;10.45;;;3.10;;
51216;SDS011;37283;49.760;8.648;2024-02-15T02:37:27;6.55;;;2.45;;
51216;SDS011;37283;49.760;8.648;2024-02-15T02:40:11;6.38;;;2.90;;
51216;SDS011;37283;49.760;8.648;2024-02-15T02:42:54;6.85;;;2.70;;
51216;SDS011;37283;49.760;8.648;2024-02-15T02:45:28;12.57;;;3.03;;
51216;SDS011;37283;49.760;8.648;2024-02-15T02:48:18;5.35;;;2.42;;
51216;SDS011;37283;49.760;8.648;2024-02-15T02:50:53;8.90;;;2.97;;
51216;SDS011;37283;49.760;8.648;2024-02-15T02:53:23;5.32;;;2.55;;
51216;SDS011;37283;49.760;8.648;2024-02-15T02:56:00;7.45;;;2.60;;
51216;SDS011;37283;49.760;8.648;2024-02-15T03:01:03;8.20;;;2.72;;
51216;SDS011;37283;49.760;8.648;2024-02-15T03:03:43;8.00;;;2.83;;
51216;SDS011;37283;49.760;8.648;2024-02-15T03:06:14;4.53;;;2.10;;
51216;SDS011;37283;49.760;8.648;2024-02-15T03:08:47;5.45;;;2.60;;
51216;SDS011;37283;49.760;8.648;2024-02-15T03:11:38;7.25;;;2.65;;
51216;SDS011;37283;49.760;8.648;2024-02-15T03:14:15;9.00;;;2.60;;
51216;SDS011;37283;49.760;8.648;2024-02-15T03:16:54;6.55;;;2.63;;
51216;SDS011;37283;49.760;8.648;2024-02-15T03:19:24;5.72;;;2.70;;
51216;SDS011;37283;49.760;8.648;2024-02-15T03:21:55;5.85;;;2.65;;
51216;SDS011;37283;49.760;8.648;2024-02-15T03:27:22;6.57;;;2.60;;
51216;SDS011;37283;49.760;8.648;2024-02-15T03:29:52;7.72;;;2.80;;
51216;SDS011;37283;49.760;8.648;2024-02-15T03:32:26;7.50;;;2.90;;
51216;SDS011;37283;49.760;8.648;2024-02-15T03:34:58;5.20;;;2.28;;
51216;SDS011;37283;49.760;8.648;2024-02-15T03:37:28;6.93;;;2.38;;
51216;SDS011;37283;49.760;8.648;2024-02-15T03:39:59;5.72;;;2.10;;
51216;SDS011;37283;49.760;8.648;2024-02-15T03:42:28;7.97;;;2.97;;
51216;SDS011;37283;49.760;8.648;2024-02-15T03:44:57;5.95;;;2.65;;
51216;SDS011;37283;49.760;8.648;2024-02-15T03:47:29;6.72;;;2.78;;
51216;SDS011;37283;49.760;8.648;2024-02-15T03:49:57;7.40;;;2.65;;
51216;SDS011;37283;49.760;8.648;2024-02-15T03:52:27;5.78;;;2.35;;
51216;SDS011;37283;49.760;8.648;2024-02-15T03:54:59;8.23;;;2.28;;
51216;SDS011;37283;49.760;8.648;2024-02-15T03:57:32;11.00;;;2.78;;
51216;SDS011;37283;49.760;8.648;2024-02-15T04:00:03;4.85;;;2.33;;
51216;SDS011;37283;49.760;8.648;2024-02-15T04:02:35;6.85;;;2.38;;
51216;SDS011;37283;49.760;8.648;2024-02-15T04:05:07;6.25;;;2.35;;
51216;SDS011;37283;49.760;8.648;2024-02-15T04:07:38;6.53;;;2.38;;
51216;SDS011;37283;49.760;8.648;2024-02-15T04:10:12;8.13;;;2.55;;
51216;SDS011;37283;49.760;8.648;2024-02-15T04:12:45;5.15;;;2.22;;
51216;SDS011;37283;49.760;8.648;2024-02-15T04:15:15;7.57;;;2.53;;
51216;SDS011;37283;49.760;8.648;2024-02-15T04:17:46;5.68;;;2.50;;
51216;SDS011;37283;49.760;8.648;2024-02-15T04:20:16;5.03;;;2.13;;
51216;SDS011;37283;49.760;8.648;2024-02-15T04:23:04;7.28;;;2.20;;
51216;SDS011;37283;49.760;8.648;2024-02-15T04:25:41;7.30;;;2.25;;
51216;SDS011;37283;49.760;8.648;2024-02-15T04:28:23;6.40;;;2.63;;
51216;SDS011;37283;49.760;8.648;2024-02-15T04:30:52;6.55;;;2.33;;
51216;SDS011;37283;49.760;8.648;2024-02-15T04:33:23;4.65;;;2.15;;
51216;SDS011;37283;49.760;8.648;2024-02-15T04:35:54;6.00;;;2.30;;
51216;SDS011;37283;49.760;8.648;2024-02-15T04:38:22;5.97;;;2.40;;
51216;SDS011;37283;49.760;8.648;2024-02-15T04:40:49;5.15;;;2.05;;
51216;SDS011;37283;49.760;8.648;2024-02-15T04:43:18;8.00;;;2.45;;
51216;SDS011;37283;49.760;8.648;2024-02-15T04:45:47;8.23;;;2.03;;
51216;SDS011;37283;49.760;8.648;2024-02-15T04:48:16;7.47;;;2.60;;
51216;SDS011;37283;49.760;8.648;2024-02-15T04:50:46;4.70;;;2.10;;
51216;SDS011;37283;49.760;8.648;2024-02-15T04:53:16;5.95;;;2.38;;
51216;SDS011;37283;49.760;8.648;2024-02-15T04:55:44;6.38;;;2.03;;
51216;SDS011;37283;49.760;8.648;2024-02-15T04:58:12;5.53;;;2.10;;
51216;SDS011;37283;49.760;8.648;2024-02-15T05:00:41;5.03;;;1.90;;
51216;SDS011;37283;49.760;8.648;2024-02-15T05:03:11;7.18;;;2.15;;
51216;SDS011;37283;49.760;8.648;2024-02-15T05:06:05;5.15;;;2.15;;
51216;SDS011;37283;49.760;8.648;2024-02-15T05:08:36;5.85;;;1.75;;
51216;SDS011;37283;49.760;8.648;2024-02-15T05:11:09;6.55;;;1.98;;
51216;SDS011;37283;49.760;8.648;2024-02-15T05:14:03;5.80;;;2.08;;
51216;SDS011;37283;49.760;8.648;2024-02-15T05:16:33;8.82;;;2.03;;
51216;SDS011;37283;49.760;8.648;2024-02-15T05:19:01;7.22;;;2.22;;
51216;SDS011;37283;49.760;8.648;2024-02-15T05:21:30;6.22;;;2.20;;
51216;SDS011;37283;49.760;8.648;2024-02-15T05:23:58;5.30;;;1.83;;
51216;SDS011;37283;49.760;8.648;2024-02-15T05:26:31;6.72;;;2.42;;
51216;SDS011;37283;49.760;8.648;2024-02-15T05:29:00;8.30;;;2.25;;
51216;SDS011;37283;49.760;8.648;2024-02-15T05:31:27;6.22;;;2.10;;
51216;SDS011;37283;49.760;8.648;2024-02-15T05:33:54;7.28;;;2.17;;
51216;SDS011;37283;49.760;8.648;2024-02-15T05:36:24;6.35;;;2.00;;
51216;SDS011;37283;49.760;8.648;2024-02-15T05:38:53;6.65;;;1.98;;
51216;SDS011;37283;49.760;8.648;2024-02-15T05:41:22;6.75;;;2.13;;
51216;SDS011;37283;49.760;8.648;2024-02-15T05:43:49;5.43;;;1.80;;
51216;SDS011;37283;49.760;8.648;2024-02-15T05:46:20;6.95;;;2.13;;
51216;SDS011;37283;49.760;8.648;2024-02-15T05:48:50;5.78;;;2.10;;
51216;SDS011;37283;49.760;8.648;2024-02-15T05:51:22;6.32;;;2.05;;
51216;SDS011;37283;49.760;8.648;2024-02-15T05:53:51;5.60;;;2.20;;
51216;SDS011;37283;49.760;8.648;2024-02-15T05:56:21;4.47;;;2.00;;
51216;SDS011;37283;49.760;8.648;2024-02-15T05:59:01;5.25;;;2.13;;
51216;SDS011;37283;49.760;8.648;2024-02-15T06:01:39;8.25;;;1.88;;
51216;SDS011;37283;49.760;8.648;2024-02-15T06:04:09;5.20;;;1.95;;
51216;SDS011;37283;49.760;8.648;2024-02-15T06:06:36;4.65;;;2.00;;
51216;SDS011;37283;49.760;8.648;2024-02-15T06:09:05;7.30;;;2.10;;
51216;SDS011;37283;49.760;8.648;2024-02-15T06:11:35;7.38;;;1.80;;
51216;SDS011;37283;49.760;8.648;2024-02-15T06:14:06;8.80;;;2.30;;
51216;SDS011;37283;49.760;8.648;2024-02-15T06:16:33;5.32;;;2.00;;
51216;SDS011;37283;49.760;8.648;2024-02-15T06:19:01;6.65;;;1.92;;
51216;SDS011;37283;49.760;8.648;2024-02-15T06:21:29;5.93;;;2.17;;
51216;SDS011;37283;49.760;8.648;2024-02-15T06:23:56;7.30;;;2.00;;
51216;SDS011;37283;49.760;8.648;2024-02-15T06:26:24;5.47;;;2.13;;
51216;SDS011;37283;49.760;8.648;2024-02-15T06:28:51;5.55;;;2.10;;
51216;SDS011;37283;49.760;8.648;2024-02-15T06:31:38;4.50;;;2.08;;
51216;SDS011;37283;49.760;8.648;2024-02-15T06:34:24;5.25;;;2.05;;
51216;SDS011;37283;49.760;8.648;2024-02-15T06:37:09;5.38;;;2.03;;
51216;SDS011;37283;49.760;8.648;2024-02-15T06:39:54;5.13;;;2.00;;
51216;SDS011;37283;49.760;8.648;2024-02-15T06:42:21;5.78;;;2.10;;
51216;SDS011;37283;49.760;8.648;2024-02-15T06:44:48;4.70;;;1.88;;
51216;SDS011;37283;49.760;8.648;2024-02-15T06:47:18;6.35;;;1.67;;
51216;SDS011;37283;49.760;8.648;2024-02-15T06:49:46;4.18;;;1.90;;
51216;SDS011;37283;49.760;8.648;2024-02-15T06:52:13;6.18;;;2.13;;
51216;SDS011;37283;49.760;8.648;2024-02-15T06:54:41;5.88;;;1.95;;
51216;SDS011;37283;49.760;8.648;2024-02-15T06:57:09;5.22;;;1.73;;
51216;SDS011;37283;49.760;8.648;2024-02-15T06:59:36;5.53;;;2.03;;
51216;SDS011;37283;49.760;8.648;2024-02-15T07:02:06;6.22;;;2.28;;
51216;SDS011;37283;49.760;8.648;2024-02-15T07:04:34;6.50;;;2.13;;
51216;SDS011;37283;49.760;8.648;2024-02-15T07:07:04;4.72;;;1.80;;
51216;SDS011;37283;49.760;8.648;2024-02-15T07:09:31;5.30;;;2.25;;
51216;SDS011;37283;49.760;8.648;2024-02-15T07:11:58;5.30;;;2.03;;
51216;SDS011;37283;49.760;8.648;2024-02-15T07:14:25;4.40;;;1.95;;
51216;SDS011;37283;49.760;8.648;2024-02-15T07:16:54;6.28;;;2.10;;
51216;SDS011;37283;49.760;8.648;2024-02-15T07:19:25;7.20;;;2.05;;
51216;SDS011;37283;49.760;8.648;2024-02-15T07:21:55;5.57;;;2.03;;
51216;SDS011;37283;49.760;8.648;2024-02-15T07:24:23;6.15;;;1.98;;
51216;SDS011;37283;49.760;8.648;2024-02-15T07:26:53;7.70;;;1.90;;
51216;SDS011;37283;49.760;8.648;2024-02-15T07:29:21;5.65;;;1.85;;
51216;SDS011;37283;49.760;8.648;2024-02-15T07:31:49;3.92;;;1.70;;
51216;SDS011;37283;49.760;8.648;2024-02-15T07:34:16;5.47;;;1.75;;
51216;SDS011;37283;49.760;8.648;2024-02-15T07:36:43;6.00;;;2.05;;
51216;SDS011;37283;49.760;8.648;2024-02-15T07:39:10;3.97;;;1.92;;
51216;SDS011;37283;49.760;8.648;2024-02-15T07:41:39;4.25;;;1.70;;
51216;SDS011;37283;49.760;8.648;2024-02-15T07:44:06;6.57;;;2.08;;
51216;SDS011;37283;49.760;8.648;2024-02-15T07:46:34;5.05;;;1.70;;
51216;SDS011;37283;49.760;8.648;2024-02-15T07:49:01;8.65;;;2.17;;
51216;SDS011;37283;49.760;8.648;2024-02-15T07:51:28;6.05;;;2.00;;
51216;SDS011;37283;49.760;8.648;2024-02-15T07:53:55;4.22;;;1.65;;
51216;SDS011;37283;49.760;8.648;2024-02-15T07:56:21;4.50;;;1.60;;
51216;SDS011;37283;49.760;8.648;2024-02-15T07:58:48;5.53;;;1.85;;
51216;SDS011;37283;49.760;8.648;2024-02-15T08:01:19;7.75;;;2.08;;
51216;SDS011;37283;49.760;8.648;2024-02-15T08:03:51;5.68;;;1.70;;
51216;SDS011;37283;49.760;8.648;2024-02-15T08:06:20;4.20;;;2.00;;
51216;SDS011;37283;49.760;8.648;2024-02-15T08:08:47;3.75;;;1.75;;
51216;SDS011;37283;49.760;8.648;2024-02-15T08:11:14;5.72;;;1.67;;
51216;SDS011;37283;49.760;8.648;2024-02-15T08:13:44;6.15;;;1.60;;
51216;SDS011;37283;49.760;8.648;2024-02-15T08:16:12;7.32;;;1.65;;
51216;SDS011;37283;49.760;8.648;2024-02-15T08:18:38;5.63;;;1.85;;
51216;SDS011;37283;49.760;8.648;2024-02-15T08:21:05;5.82;;;1.50;;
51216;SDS011;37283;49.760;8.648;2024-02-15T08:23:32;4.68;;;1.80;;
51216;SDS011;37283;49.760;8.648;2024-02-15T08:25:59;5.28;;;1.80;;
51216;SDS011;37283;49.760;8.648;2024-02-15T08:28:25;7.32;;;1.70;;
51216;SDS011;37283;49.760;8.648;2024-02-15T08:30:56;8.27;;;1.92;;
51216;SDS011;37283;49.760;8.648;2024-02-15T08:33:26;6.00;;;1.67;;
51216;SDS011;37283;49.760;8.648;2024-02-15T08:35:54;5.97;;;2.35;;
51216;SDS011;37283;49.760;8.648;2024-02-15T08:38:22;4.57;;;1.60;;
51216;SDS011;37283;49.760;8.648;2024-02-15T08:40:49;4.93;;;2.20;;
51216;SDS011;37283;49.760;8.648;2024-02-15T08:43:15;3.47;;;1.50;;
51216;SDS011;37283;49.760;8.648;2024-02-15T08:45:44;3.85;;;1.67;;
51216;SDS011;37283;49.760;8.648;2024-02-15T08:48:11;4.38;;;1.90;;
51216;SDS011;37283;49.760;8.648;2024-02-15T08:50:38;4.88;;;1.85;;
51216;SDS011;37283;49.760;8.648;2024-02-15T08:53:05;5.05;;;1.80;;
51216;SDS011;37283;49.760;8.648;2024-02-15T08:55:34;6.70;;;2.45;;
51216;SDS011;37283;49.760;8.648;2024-02-15T08:58:02;6.22;;;2.10;;
51216;SDS011;37283;49.760;8.648;2024-02-15T09:00:30;7.00;;;2.15;;
51216;SDS011;37283;49.760;8.648;2024-02-15T09:02:57;4.82;;;2.08;;
51216;SDS011;37283;49.760;8.648;2024-02-15T09:05:24;4.93;;;1.90;;
51216;SDS011;37283;49.760;8.648;2024-02-15T09:07:51;4.93;;;1.90;;
51216;SDS011;37283;49.760;8.648;2024-02-15T09:10:18;5.03;;;1.90;;
51216;SDS011;37283;49.760;8.648;2024-02-15T09:12:45;5.38;;;1.85;;
51216;SDS011;37283;49.760;8.648;2024-02-15T09:15:16;7.00;;;2.22;;
51216;SDS011;37283;49.760;8.648;2024-02-15T09:17:43;7.00;;;2.63;;
51216;SDS011;37283;49.760;8.648;2024-02-15T09:20:12;5.97;;;2.05;;
51216;SDS011;37283;49.760;8.648;2024-02-15T09:22:51;5.65;;;2.20;;
51216;SDS011;37283;49.760;8.648;2024-02-15T09:25:18;4.93;;;2.17;;
51216;SDS011;37283;49.760;8.648;2024-02-15T09:27:45;3.70;;;1.85;;
51216;SDS011;37283;49.760;8.648;2024-02-15T09:30:12;4.78;;;1.77;;
51216;SDS011;37283;49.760;8.648;2024-02-15T09:32:40;4.25;;;1.60;;
51216;SDS011;37283;49.760;8.648;2024-02-15T09:35:07;6.53;;;1.88;;
51216;SDS011;37283;49.760;8.648;2024-02-15T09:37:35;5.38;;;1.50;;
51216;SDS011;37283;49.760;8.648;2024-02-15T09:40:02;4.90;;;2.00;;
51216;SDS011;37283;49.760;8.648;2024-02-15T09:42:33;4.20;;;1.80;;
51216;SDS011;37283;49.760;8.648;2024-02-15T09:45:01;3.75;;;1.70;;
51216;SDS011;37283;49.760;8.648;2024-02-15T09:47:30;2.47;;;1.30;;
51216;SDS011;37283;49.760;8.648;2024-02-15T09:50:06;5.25;;;1.73;;
51216;SDS011;37283;49.760;8.648;2024-02-15T09:52:34;5.28;;;1.77;;
51216;SDS011;37283;49.760;8.648;2024-02-15T09:55:04;4.30;;;1.70;;
51216;SDS011;37283;49.760;8.648;2024-02-15T09:57:31;4.15;;;1.60;;
51216;SDS011;37283;49.760;8.648;2024-02-15T09:59:59;4.78;;;1.50;;
51216;SDS011;37283;49.760;8.648;2024-02-15T10:02:37;4.43;;;1.52;;
51216;SDS011;37283;49.760;8.648;2024-02-15T10:05:04;3.28;;;1.20;;
51216;SDS011;37283;49.760;8.648;2024-02-15T10:07:31;3.05;;;1.45;;
51216;SDS011;37283;49.760;8.648;2024-02-15T10:10:01;3.47;;;1.42;;
51216;SDS011;37283;49.760;8.648;2024-02-15T10:12:40;3.75;;;1.58;;
51216;SDS011;37283;49.760;8.648;2024-02-15T10:15:07;3.83;;;1.48;;
51216;SDS011;37283;49.760;8.648;2024-02-15T10:17:36;4.15;;;1.45;;
51216;SDS011;37283;49.760;8.648;2024-02-15T10:20:03;5.57;;;1.67;;
51216;SDS011;37283;49.760;8.648;2024-02-15T10:22:31;5.97;;;1.63;;
51216;SDS011;37283;49.760;8.648;2024-02-15T10:25:11;5.05;;;1.67;;
51216;SDS011;37283;49.760;8.648;2024-02-15T10:27:40;3.55;;;1.50;;
51216;SDS011;37283;49.760;8.648;2024-02-15T10:30:16;4.70;;;1.50;;
51216;SDS011;37283;49.760;8.648;2024-02-15T10:32:44;3.15;;;1.35;;
51216;SDS011;37283;49.760;8.648;2024-02-15T10:35:18;4.20;;;1.70;;
51216;SDS011;37283;49.760;8.648;2024-02-15T10:37:46;4.22;;;1.80;;
51216;SDS011;37283;49.760;8.648;2024-02-15T10:42:48;4.63;;;1.48;;
51216;SDS011;37283;49.760;8.648;2024-02-15T10:45:15;4.25;;;1.67;;
51216;SDS011;37283;49.760;8.648;2024-02-15T10:47:44;5.25;;;1.80;;
51216;SDS011;37283;49.760;8.648;2024-02-15T10:50:14;3.90;;;1.40;;
51216;SDS011;37283;49.760;8.648;2024-02-15T10:52:58;3.83;;;1.60;;
51216;SDS011;37283;49.760;8.648;2024-02-15T10:55:38;4.00;;;1.50;;
51216;SDS011;37283;49.760;8.648;2024-02-15T10:58:10;3.97;;;1.33;;
51216;SDS011;37283;49.760;8.648;2024-02-15T11:00:39;3.22;;;1.38;;
51216;SDS011;37283;49.760;8.648;2024-02-15T11:03:07;2.88;;;1.40;;
51216;SDS011;37283;49.760;8.648;2024-02-15T11:05:35;4.15;;;1.33;;
51216;SDS011;37283;49.760;8.648;2024-02-15T11:08:07;4.18;;;1.17;;
51216;SDS011;37283;49.760;8.648;2024-02-15T11:10:35;3.13;;;1.45;;
51216;SDS011;37283;49.760;8.648;2024-02-15T11:13:02;5.18;;;1.75;;
51216;SDS011;37283;49.760;8.648;2024-02-15T11:18:05;4.68;;;1.77;;
51216;SDS011;37283;49.760;8.648;2024-02-15T11:23:02;4.65;;;2.05;;
51216;SDS011;37283;49.760;8.648;2024-02-15T11:25:33;6.32;;;2.25;;
51216;SDS011;37283;49.760;8.648;2024-02-15T11:31:00;5.30;;;2.13;;
51216;SDS011;37283;49.760;8.648;2024-02-15T11:33:32;5.25;;;1.60;;
51216;SDS011;37283;49.760;8.648;2024-02-15T11:36:05;6.97;;;1.50;;
51216;SDS011;37283;49.760;8.648;2024-02-15T11:41:04;6.40;;;1.70;;
51216;SDS011;37283;49.760;8.648;2024-02-15T11:43:51;4.25;;;1.65;;
51216;SDS011;37283;49.760;8.648;2024-02-15T11:46:26;3.22;;;1.35;;
51216;SDS011;37283;49.760;8.648;2024-02-15T11:48:58;4.93;;;1.40;;
51216;SDS011;37283;49.760;8.648;2024-02-15T11:51:26;4.43;;;1.50;;
51216;SDS011;37283;49.760;8.648;2024-02-15T11:54:07;2.90;;;1.30;;
51216;SDS011;37283;49.760;8.648;2024-02-15T11:59:42;3.90;;;1.30;;
51216;SDS011;37283;49.760;8.648;2024-02-15T12:02:31;6.72;;;1.70;;
51216;SDS011;37283;49.760;8.648;2024-02-15T12:05:18;5.35;;;1.15;;
51216;SDS011;37283;49.760;8.648;2024-02-15T12:08:03;5.20;;;1.50;;
51216;SDS011;37283;49.760;8.648;2024-02-15T12:10:56;4.80;;;1.30;;
51216;SDS011;37283;49.760;8.648;2024-02-15T12:13:42;3.72;;;1.38;;
51216;SDS011;37283;49.760;8.648;2024-02-15T12:16:28;3.47;;;1.15;;
51216;SDS011;37283;49.760;8.648;2024-02-15T12:19:17;3.33;;;1.17;;
51216;SDS011;37283;49.760;8.648;2024-02-15T12:21:44;3.40;;;1.20;;
51216;SDS011;37283;49.760;8.648;2024-02-15T12:24:11;4.13;;;1.10;;
51216;SDS011;37283;49.760;8.648;2024-02-15T12:26:38;4.72;;;1.20;;
51216;SDS011;37283;49.760;8.648;2024-02-15T12:29:04;5.68;;;1.20;;
51216;SDS011;37283;49.760;8.648;2024-02-15T12:31:35;4.70;;;1.60;;
51216;SDS011;37283;49.760;8.648;2024-02-15T12:34:04;6.53;;;1.50;;
51216;SDS011;37283;49.760;8.648;2024-02-15T12:36:35;2.22;;;1.17;;
51216;SDS011;37283;49.760;8.648;2024-02-15T12:39:05;4.05;;;1.42;;
51216;SDS011;37283;49.760;8.648;2024-02-15T12:41:39;5.00;;;1.35;;
51216;SDS011;37283;49.760;8.648;2024-02-15T12:44:07;4.40;;;1.20;;
51216;SDS011;37283;49.760;8.648;2024-02-15T12:46:37;4.30;;;1.52;;
51216;SDS011;37283;49.760;8.648;2024-02-15T12:51:51;4.43;;;1.33;;
51216;SDS011;37283;49.760;8.648;2024-02-15T12:54:23;5.68;;;1.67;;
51216;SDS011;37283;49.760;8.648;2024-02-15T12:56:50;4.45;;;1.50;;
51216;SDS011;37283;49.760;8.648;2024-02-15T12:59:20;3.80;;;1.38;;
51216;SDS011;37283;49.760;8.648;2024-02-15T13:01:47;8.02;;;2.17;;
51216;SDS011;37283;49.760;8.648;2024-02-15T13:04:23;8.55;;;4.53;;
51216;SDS011;37283;49.760;8.648;2024-02-15T13:06:51;6.13;;;2.63;;
51216;SDS011;37283;49.760;8.648;2024-02-15T13:09:17;3.85;;;1.33;;
51216;SDS011;37283;49.760;8.648;2024-02-15T13:11:45;5.65;;;1.95;;
51216;SDS011;37283;49.760;8.648;2024-02-15T13:14:13;6.80;;;2.55;;
51216;SDS011;37283;49.760;8.648;2024-02-15T13:16:40;6.25;;;1.40;;
51216;SDS011;37283;49.760;8.648;2024-02-15T13:19:09;4.97;;;1.40;;
51216;SDS011;37283;49.760;8.648;2024-02-15T13:21:35;4.60;;;1.48;;
51216;SDS011;37283;49.760;8.648;2024-02-15T13:24:02;4.90;;;1.95;;
51216;SDS011;37283;49.760;8.648;2024-02-15T13:26:31;5.53;;;2.72;;
51216;SDS011;37283;49.760;8.648;2024-02-15T13:29:00;5.97;;;2.13;;
51216;SDS011;37283;49.760;8.648;2024-02-15T13:31:26;4.82;;;2.13;;
51216;SDS011;37283;49.760;8.648;2024-02-15T13:33:54;6.22;;;1.90;;
51216;SDS011;37283;49.760;8.648;2024-02-15T13:36:21;4.97;;;1.58;;
51216;SDS011;37283;49.760;8.648;2024-02-15T13:38:48;7.47;;;2.85;;
51216;SDS011;37283;49.760;8.648;2024-02-15T13:41:17;6.28;;;2.72;;
51216;SDS011;37283;49.760;8.648;2024-02-15T13:43:44;9.10;;;2.60;;
51216;SDS011;37283;49.760;8.648;2024-02-15T13:46:11;6.93;;;3.67;;
51216;SDS011;37283;49.760;8.648;2024-02-15T13:48:37;7.28;;;2.80;;
51216;SDS011;37283;49.760;8.648;2024-02-15T13:51:04;6.57;;;1.77;;
51216;SDS011;37283;49.760;8.648;2024-02-15T13:53:35;6.85;;;1.80;;
51216;SDS011;37283;49.760;8.648;2024-02-15T13:56:02;3.83;;;1.55;;
51216;SDS011;37283;49.760;8.648;2024-02-15T13:58:29;7.22;;;1.90;;
51216;SDS011;37283;49.760;8.648;2024-02-15T14:00:56;7.55;;;2.13;;
51216;SDS011;37283;49.760;8.648;2024-02-15T14:03:24;7.90;;;1.77;;
51216;SDS011;37283;49.760;8.648;2024-02-15T14:05:51;3.65;;;1.52;;
51216;SDS011;37283;49.760;8.648;2024-02-15T14:08:17;6.07;;;1.40;;
51216;SDS011;37283;49.760;8.648;2024-02-15T14:10:48;4.95;;;1.70;;
51216;SDS011;37283;49.760;8.648;2024-02-15T14:13:15;5.88;;;1.52;;
51216;SDS011;37283;49.760;8.648;2024-02-15T14:15:41;6.18;;;1.40;;
51216;SDS011;37283;49.760;8.648;2024-02-15T14:18:10;3.90;;;1.67;;
51216;SDS011;37283;49.760;8.648;2024-02-15T14:20:40;4.82;;;1.60;;
51216;SDS011;37283;49.760;8.648;2024-02-15T14:23:09;5.65;;;1.52;;
51216;SDS011;37283;49.760;8.648;2024-02-15T14:25:40;2.75;;;1.30;;
51216;SDS011;37283;49.760;8.648;2024-02-15T14:28:06;4.38;;;2.05;;
51216;SDS011;37283;49.760;8.648;2024-02-15T14:30:35;3.92;;;1.40;;
51216;SDS011;37283;49.760;8.648;2024-02-15T14:33:20;5.80;;;1.95;;
51216;SDS011;37283;49.760;8.648;2024-02-15T14:35:49;6.05;;;1.40;;
51216;SDS011;37283;49.760;8.648;2024-02-15T14:38:19;7.97;;;5.40;;
51216;SDS011;37283;49.760;8.648;2024-02-15T14:40:47;4.82;;;2.22;;
51216;SDS011;37283;49.760;8.648;2024-02-15T14:43:25;5.63;;;1.85;;
51216;SDS011;37283;49.760;8.648;2024-02-15T14:45:54;5.68;;;1.55;;
51216;SDS011;37283;49.760;8.648;2024-02-15T14:48:22;4.22;;;1.38;;
51216;SDS011;37283;49.760;8.648;2024-02-15T14:50:50;4.68;;;1.70;;
51216;SDS011;37283;49.760;8.648;2024-02-15T14:53:18;8.30;;;1.63;;
51216;SDS011;37283;49.760;8.648;2024-02-15T14:55:45;3.90;;;1.45;;
51216;SDS011;37283;49.760;8.648;2024-02-15T14:58:13;2.40;;;1.00;;
51216;SDS011;37283;49.760;8.648;2024-02-15T15:00:40;4.05;;;1.17;;
51216;SDS011;37283;49.760;8.648;2024-02-15T15:03:11;3.63;;;1.25;;
51216;SDS011;37283;49.760;8.648;2024-02-15T15:05:41;4.50;;;1.40;;
51216;SDS011;37283;49.760;8.648;2024-02-15T15:08:27;3.63;;;1.30;;
51216;SDS011;37283;49.760;8.648;2024-02-15T15:11:12;3.20;;;1.30;;
51216;SDS011;37283;49.760;8.648;2024-02-15T15:13:58;3.88;;;1.20;;
51216;SDS011;37283;49.760;8.648;2024-02-15T15:16:24;4.45;;;1.15;;
51216;SDS011;37283;49.760;8.648;2024-02-15T15:18:52;4.07;;;1.30;;
51216;SDS011;37283;49.760;8.648;2024-02-15T15:21:19;5.55;;;1.33;;
51216;SDS011;37283;49.760;8.648;2024-02-15T15:23:51;4.55;;;1.23;;
51216;SDS011;37283;49.760;8.648;2024-02-15T15:26:18;3.67;;;1.00;;
51216;SDS011;37283;49.760;8.648;2024-02-15T15:28:46;4.88;;;1.10;;
51216;SDS011;37283;49.760;8.648;2024-02-15T15:31:14;3.15;;;1.00;;
51216;SDS011;37283;49.760;8.648;2024-02-15T15:33:41;4.05;;;1.17;;
51216;SDS011;37283;49.760;8.648;2024-02-15T15:36:08;5.72;;;1.85;;
51216;SDS011;37283;49.760;8.648;2024-02-15T15:38:37;5.57;;;1.35;;
51216;SDS011;37283;49.760;8.648;2024-02-15T15:41:03;4.18;;;1.40;;
51216;SDS011;37283;49.760;8.648;2024-02-15T15:43:30;5.10;;;1.23;;
51216;SDS011;37283;49.760;8.648;2024-02-15T15:45:56;5.47;;;1.20;;